Lewisville, Texas
Current Conditions -  °F | °C
As of 2:53 PM on Thursday 27 Nov 2014 (Local Time) from KDFW Reporting Station
Clear Clear  
Wind Chill: 13°   Ceiling: Unl
Heat Index: 13°   Visibility: 10mi
Dew Point: -7°   Wind: 6mph
Humidity: 25%   Direction: NA
Pressure: 30.43"   Gusts: NA
Location:  33.05°N, 96.99°W
Report Text: KDFW 272053Z VRB05KT 10SM CLR 13/M07 A3043 RMK AO2 SLP302 T01331067 56028
Loading
Personal Weather Stations






























Interactive Weather Map New forecast layout! Learn more

10-Day Weather Forecast

Advertisements
Track Severe Weather on mobile